sensor_id;sensor_type;location;lat;lon;timestamp;P1;durP1;ratioP1;P2;durP2;ratioP2
13520;SDS011;6832;51.186;3.236;2022-08-19T00:00:34;14.63;;;10.30;;
13520;SDS011;6832;51.186;3.236;2022-08-19T00:03:04;11.77;;;9.70;;
13520;SDS011;6832;51.186;3.236;2022-08-19T00:05:34;16.70;;;10.53;;
13520;SDS011;6832;51.186;3.236;2022-08-19T00:08:08;13.67;;;9.73;;
13520;SDS011;6832;51.186;3.236;2022-08-19T00:10:36;18.00;;;11.23;;
13520;SDS011;6832;51.186;3.236;2022-08-19T00:13:13;18.20;;;11.30;;
13520;SDS011;6832;51.186;3.236;2022-08-19T00:15:43;21.37;;;12.47;;
13520;SDS011;6832;51.186;3.236;2022-08-19T00:18:20;14.07;;;10.43;;
13520;SDS011;6832;51.186;3.236;2022-08-19T00:20:49;13.57;;;10.07;;
13520;SDS011;6832;51.186;3.236;2022-08-19T00:23:30;12.20;;;10.03;;
13520;SDS011;6832;51.186;3.236;2022-08-19T00:26:06;14.67;;;10.23;;
13520;SDS011;6832;51.186;3.236;2022-08-19T00:28:50;14.67;;;10.23;;
13520;SDS011;6832;51.186;3.236;2022-08-19T00:31:19;17.13;;;11.37;;
13520;SDS011;6832;51.186;3.236;2022-08-19T00:33:50;16.87;;;10.33;;
13520;SDS011;6832;51.186;3.236;2022-08-19T00:39:00;15.73;;;10.40;;
13520;SDS011;6832;51.186;3.236;2022-08-19T00:41:29;15.47;;;10.47;;
13520;SDS011;6832;51.186;3.236;2022-08-19T00:43:58;17.43;;;10.27;;
13520;SDS011;6832;51.186;3.236;2022-08-19T00:49:43;16.33;;;10.27;;
13520;SDS011;6832;51.186;3.236;2022-08-19T00:52:17;17.67;;;10.90;;
13520;SDS011;6832;51.186;3.236;2022-08-19T00:54:52;17.67;;;10.13;;
13520;SDS011;6832;51.186;3.236;2022-08-19T00:57:27;18.40;;;10.00;;
13520;SDS011;6832;51.186;3.236;2022-08-19T01:00:05;17.60;;;11.40;;
13520;SDS011;6832;51.186;3.236;2022-08-19T01:02:35;16.80;;;10.57;;
13520;SDS011;6832;51.186;3.236;2022-08-19T01:05:05;10.37;;;9.20;;
13520;SDS011;6832;51.186;3.236;2022-08-19T01:07:39;16.50;;;10.13;;
13520;SDS011;6832;51.186;3.236;2022-08-19T01:10:39;19.00;;;11.50;;
13520;SDS011;6832;51.186;3.236;2022-08-19T01:13:16;16.13;;;10.27;;
13520;SDS011;6832;51.186;3.236;2022-08-19T01:15:48;15.97;;;10.37;;
13520;SDS011;6832;51.186;3.236;2022-08-19T01:18:21;18.80;;;10.97;;
13520;SDS011;6832;51.186;3.236;2022-08-19T01:20:54;13.50;;;9.43;;
13520;SDS011;6832;51.186;3.236;2022-08-19T01:23:31;15.10;;;10.30;;
13520;SDS011;6832;51.186;3.236;2022-08-19T01:26:09;20.17;;;11.83;;
13520;SDS011;6832;51.186;3.236;2022-08-19T01:28:40;14.00;;;10.17;;
13520;SDS011;6832;51.186;3.236;2022-08-19T01:31:10;18.30;;;11.37;;
13520;SDS011;6832;51.186;3.236;2022-08-19T01:33:42;19.67;;;11.97;;
13520;SDS011;6832;51.186;3.236;2022-08-19T01:36:11;18.33;;;11.40;;
13520;SDS011;6832;51.186;3.236;2022-08-19T01:38:42;14.67;;;10.60;;
13520;SDS011;6832;51.186;3.236;2022-08-19T01:41:11;17.30;;;10.73;;
13520;SDS011;6832;51.186;3.236;2022-08-19T01:43:46;18.03;;;11.20;;
13520;SDS011;6832;51.186;3.236;2022-08-19T01:46:15;23.10;;;12.03;;
13520;SDS011;6832;51.186;3.236;2022-08-19T01:48:45;23.33;;;12.17;;
13520;SDS011;6832;51.186;3.236;2022-08-19T01:51:16;22.83;;;11.87;;
13520;SDS011;6832;51.186;3.236;2022-08-19T01:53:51;19.77;;;11.83;;
13520;SDS011;6832;51.186;3.236;2022-08-19T01:56:20;16.07;;;10.10;;
13520;SDS011;6832;51.186;3.236;2022-08-19T01:58:48;18.90;;;10.87;;
13520;SDS011;6832;51.186;3.236;2022-08-19T02:01:20;17.87;;;11.60;;
13520;SDS011;6832;51.186;3.236;2022-08-19T02:03:47;24.33;;;12.60;;
13520;SDS011;6832;51.186;3.236;2022-08-19T02:06:14;22.50;;;11.90;;
13520;SDS011;6832;51.186;3.236;2022-08-19T02:08:51;20.50;;;10.73;;
13520;SDS011;6832;51.186;3.236;2022-08-19T02:11:22;17.23;;;10.07;;
13520;SDS011;6832;51.186;3.236;2022-08-19T02:13:52;12.43;;;9.23;;
13520;SDS011;6832;51.186;3.236;2022-08-19T02:16:20;18.90;;;10.30;;
13520;SDS011;6832;51.186;3.236;2022-08-19T02:18:51;15.67;;;9.53;;
13520;SDS011;6832;51.186;3.236;2022-08-19T02:21:19;17.13;;;10.83;;
13520;SDS011;6832;51.186;3.236;2022-08-19T02:23:53;18.67;;;11.17;;
13520;SDS011;6832;51.186;3.236;2022-08-19T02:26:21;17.10;;;9.77;;
13520;SDS011;6832;51.186;3.236;2022-08-19T02:28:49;21.73;;;10.33;;
13520;SDS011;6832;51.186;3.236;2022-08-19T02:31:18;16.97;;;10.27;;
13520;SDS011;6832;51.186;3.236;2022-08-19T02:33:51;20.13;;;10.47;;
13520;SDS011;6832;51.186;3.236;2022-08-19T02:36:27;14.47;;;8.97;;
13520;SDS011;6832;51.186;3.236;2022-08-19T02:41:40;14.67;;;9.23;;
13520;SDS011;6832;51.186;3.236;2022-08-19T02:44:07;13.40;;;8.83;;
13520;SDS011;6832;51.186;3.236;2022-08-19T02:46:34;15.10;;;9.57;;
13520;SDS011;6832;51.186;3.236;2022-08-19T02:49:04;14.57;;;9.73;;
13520;SDS011;6832;51.186;3.236;2022-08-19T02:51:34;24.80;;;11.73;;
13520;SDS011;6832;51.186;3.236;2022-08-19T02:54:04;16.63;;;10.23;;
13520;SDS011;6832;51.186;3.236;2022-08-19T02:56:35;17.63;;;9.97;;
13520;SDS011;6832;51.186;3.236;2022-08-19T02:59:03;19.83;;;9.53;;
13520;SDS011;6832;51.186;3.236;2022-08-19T03:01:38;23.17;;;9.63;;
13520;SDS011;6832;51.186;3.236;2022-08-19T03:04:07;17.67;;;9.63;;
13520;SDS011;6832;51.186;3.236;2022-08-19T03:06:37;16.00;;;9.43;;
13520;SDS011;6832;51.186;3.236;2022-08-19T03:09:12;21.07;;;10.60;;
13520;SDS011;6832;51.186;3.236;2022-08-19T03:11:44;16.43;;;10.17;;
13520;SDS011;6832;51.186;3.236;2022-08-19T03:14:12;14.30;;;8.87;;
13520;SDS011;6832;51.186;3.236;2022-08-19T03:16:42;13.17;;;9.10;;
13520;SDS011;6832;51.186;3.236;2022-08-19T03:19:11;15.30;;;9.57;;
13520;SDS011;6832;51.186;3.236;2022-08-19T03:21:53;13.23;;;8.73;;
13520;SDS011;6832;51.186;3.236;2022-08-19T03:24:21;17.33;;;9.17;;
13520;SDS011;6832;51.186;3.236;2022-08-19T03:29:58;13.67;;;8.40;;
13520;SDS011;6832;51.186;3.236;2022-08-19T03:32:31;14.80;;;8.20;;
13520;SDS011;6832;51.186;3.236;2022-08-19T03:35:08;13.53;;;8.17;;
13520;SDS011;6832;51.186;3.236;2022-08-19T03:40:41;17.63;;;9.17;;
13520;SDS011;6832;51.186;3.236;2022-08-19T03:43:33;15.83;;;8.60;;
13520;SDS011;6832;51.186;3.236;2022-08-19T03:46:30;14.43;;;9.07;;
13520;SDS011;6832;51.186;3.236;2022-08-19T03:51:34;11.73;;;7.67;;
13520;SDS011;6832;51.186;3.236;2022-08-19T03:54:29;11.90;;;7.03;;
13520;SDS011;6832;51.186;3.236;2022-08-19T04:03:45;14.27;;;7.37;;
13520;SDS011;6832;51.186;3.236;2022-08-19T04:06:15;11.97;;;8.27;;
13520;SDS011;6832;51.186;3.236;2022-08-19T04:08:50;12.77;;;7.63;;
13520;SDS011;6832;51.186;3.236;2022-08-19T04:11:30;17.07;;;7.87;;
13520;SDS011;6832;51.186;3.236;2022-08-19T04:14:13;12.07;;;7.40;;
13520;SDS011;6832;51.186;3.236;2022-08-19T04:16:51;13.87;;;6.80;;
13520;SDS011;6832;51.186;3.236;2022-08-19T04:19:21;15.07;;;7.77;;
13520;SDS011;6832;51.186;3.236;2022-08-19T04:21:54;13.53;;;7.27;;
13520;SDS011;6832;51.186;3.236;2022-08-19T04:24:30;18.43;;;8.40;;
13520;SDS011;6832;51.186;3.236;2022-08-19T04:27:02;9.23;;;6.17;;
13520;SDS011;6832;51.186;3.236;2022-08-19T04:29:33;8.17;;;5.47;;
13520;SDS011;6832;51.186;3.236;2022-08-19T04:32:06;10.67;;;5.83;;
13520;SDS011;6832;51.186;3.236;2022-08-19T04:34:42;16.20;;;7.03;;
13520;SDS011;6832;51.186;3.236;2022-08-19T04:37:23;14.53;;;6.23;;
13520;SDS011;6832;51.186;3.236;2022-08-19T04:40:10;11.63;;;6.27;;
13520;SDS011;6832;51.186;3.236;2022-08-19T04:43:01;18.33;;;7.87;;
13520;SDS011;6832;51.186;3.236;2022-08-19T04:45:46;16.13;;;7.13;;
13520;SDS011;6832;51.186;3.236;2022-08-19T04:48:21;12.10;;;6.53;;
13520;SDS011;6832;51.186;3.236;2022-08-19T04:51:06;11.00;;;6.83;;
13520;SDS011;6832;51.186;3.236;2022-08-19T04:53:39;12.70;;;6.03;;
13520;SDS011;6832;51.186;3.236;2022-08-19T04:56:10;9.53;;;5.90;;
13520;SDS011;6832;51.186;3.236;2022-08-19T04:59:02;12.50;;;6.53;;
13520;SDS011;6832;51.186;3.236;2022-08-19T05:10:34;11.30;;;6.70;;
13520;SDS011;6832;51.186;3.236;2022-08-19T05:13:18;15.37;;;6.47;;
13520;SDS011;6832;51.186;3.236;2022-08-19T05:15:56;11.43;;;5.87;;
13520;SDS011;6832;51.186;3.236;2022-08-19T05:25:06;7.83;;;4.77;;
13520;SDS011;6832;51.186;3.236;2022-08-19T05:28:03;7.57;;;4.60;;
13520;SDS011;6832;51.186;3.236;2022-08-19T05:30:46;9.97;;;6.07;;
13520;SDS011;6832;51.186;3.236;2022-08-19T05:33:27;9.63;;;5.50;;
13520;SDS011;6832;51.186;3.236;2022-08-19T05:36:32;11.97;;;6.23;;
13520;SDS011;6832;51.186;3.236;2022-08-19T05:42:10;9.53;;;4.67;;
13520;SDS011;6832;51.186;3.236;2022-08-19T05:44:42;9.93;;;5.60;;
13520;SDS011;6832;51.186;3.236;2022-08-19T05:47:39;8.63;;;5.17;;
13520;SDS011;6832;51.186;3.236;2022-08-19T05:50:11;10.40;;;5.27;;
13520;SDS011;6832;51.186;3.236;2022-08-19T05:52:45;11.87;;;5.33;;
13520;SDS011;6832;51.186;3.236;2022-08-19T05:58:50;8.63;;;5.17;;
13520;SDS011;6832;51.186;3.236;2022-08-19T06:01:56;7.87;;;4.97;;
13520;SDS011;6832;51.186;3.236;2022-08-19T06:04:39;9.43;;;5.43;;
13520;SDS011;6832;51.186;3.236;2022-08-19T06:07:09;15.60;;;6.87;;
13520;SDS011;6832;51.186;3.236;2022-08-19T06:09:40;12.77;;;6.10;;
13520;SDS011;6832;51.186;3.236;2022-08-19T06:12:10;9.57;;;4.87;;
13520;SDS011;6832;51.186;3.236;2022-08-19T06:14:41;9.43;;;5.13;;
13520;SDS011;6832;51.186;3.236;2022-08-19T06:17:11;8.90;;;5.17;;
13520;SDS011;6832;51.186;3.236;2022-08-19T06:19:53;6.90;;;4.40;;
13520;SDS011;6832;51.186;3.236;2022-08-19T06:22:22;9.87;;;5.60;;
13520;SDS011;6832;51.186;3.236;2022-08-19T06:25:05;7.50;;;4.10;;
13520;SDS011;6832;51.186;3.236;2022-08-19T06:36:34;10.17;;;5.13;;
13520;SDS011;6832;51.186;3.236;2022-08-19T06:39:09;11.13;;;5.17;;
13520;SDS011;6832;51.186;3.236;2022-08-19T06:44:44;11.43;;;5.53;;
13520;SDS011;6832;51.186;3.236;2022-08-19T06:47:14;11.20;;;5.33;;
13520;SDS011;6832;51.186;3.236;2022-08-19T06:49:46;7.47;;;5.30;;
13520;SDS011;6832;51.186;3.236;2022-08-19T06:54:47;10.07;;;5.07;;
13520;SDS011;6832;51.186;3.236;2022-08-19T06:57:33;9.23;;;4.57;;
13520;SDS011;6832;51.186;3.236;2022-08-19T07:00:07;13.33;;;5.17;;
13520;SDS011;6832;51.186;3.236;2022-08-19T07:02:36;10.97;;;4.87;;
13520;SDS011;6832;51.186;3.236;2022-08-19T07:05:18;8.77;;;3.83;;
13520;SDS011;6832;51.186;3.236;2022-08-19T07:07:47;9.53;;;4.37;;
13520;SDS011;6832;51.186;3.236;2022-08-19T07:10:17;8.70;;;4.33;;
13520;SDS011;6832;51.186;3.236;2022-08-19T07:13:00;10.10;;;4.83;;
13520;SDS011;6832;51.186;3.236;2022-08-19T07:18:19;8.87;;;3.87;;
13520;SDS011;6832;51.186;3.236;2022-08-19T07:20:50;9.60;;;4.60;;
13520;SDS011;6832;51.186;3.236;2022-08-19T07:23:20;12.30;;;4.80;;
13520;SDS011;6832;51.186;3.236;2022-08-19T07:26:04;8.00;;;4.20;;
13520;SDS011;6832;51.186;3.236;2022-08-19T07:28:44;6.87;;;3.47;;
13520;SDS011;6832;51.186;3.236;2022-08-19T07:31:32;10.03;;;3.90;;
13520;SDS011;6832;51.186;3.236;2022-08-19T07:34:13;12.40;;;4.97;;
13520;SDS011;6832;51.186;3.236;2022-08-19T07:36:41;9.67;;;4.30;;
13520;SDS011;6832;51.186;3.236;2022-08-19T07:42:20;8.03;;;3.37;;
13520;SDS011;6832;51.186;3.236;2022-08-19T07:45:06;11.10;;;5.03;;
13520;SDS011;6832;51.186;3.236;2022-08-19T07:51:14;6.70;;;4.27;;
13520;SDS011;6832;51.186;3.236;2022-08-19T08:09:15;10.03;;;6.17;;
13520;SDS011;6832;51.186;3.236;2022-08-19T08:12:09;9.67;;;6.43;;
13520;SDS011;6832;51.186;3.236;2022-08-19T08:14:54;9.10;;;6.27;;
13520;SDS011;6832;51.186;3.236;2022-08-19T08:17:36;10.93;;;7.10;;
13520;SDS011;6832;51.186;3.236;2022-08-19T08:27:57;21.67;;;10.90;;
13520;SDS011;6832;51.186;3.236;2022-08-19T08:30:26;13.30;;;8.03;;
13520;SDS011;6832;51.186;3.236;2022-08-19T08:32:57;11.23;;;7.27;;
13520;SDS011;6832;51.186;3.236;2022-08-19T08:35:25;13.13;;;8.17;;
13520;SDS011;6832;51.186;3.236;2022-08-19T08:37:53;13.00;;;7.63;;
13520;SDS011;6832;51.186;3.236;2022-08-19T08:40:30;14.30;;;8.03;;
13520;SDS011;6832;51.186;3.236;2022-08-19T08:43:18;11.90;;;7.40;;
13520;SDS011;6832;51.186;3.236;2022-08-19T08:45:54;7.20;;;6.20;;
13520;SDS011;6832;51.186;3.236;2022-08-19T08:48:30;15.10;;;8.57;;
13520;SDS011;6832;51.186;3.236;2022-08-19T08:51:05;8.77;;;6.10;;
13520;SDS011;6832;51.186;3.236;2022-08-19T08:53:37;10.10;;;6.80;;
13520;SDS011;6832;51.186;3.236;2022-08-19T08:56:06;8.10;;;7.30;;
13520;SDS011;6832;51.186;3.236;2022-08-19T08:58:42;9.87;;;6.87;;
13520;SDS011;6832;51.186;3.236;2022-08-19T09:01:17;12.87;;;7.30;;
13520;SDS011;6832;51.186;3.236;2022-08-19T09:03:50;9.97;;;6.50;;
13520;SDS011;6832;51.186;3.236;2022-08-19T09:06:19;8.27;;;5.83;;
13520;SDS011;6832;51.186;3.236;2022-08-19T09:12:02;11.43;;;6.13;;
13520;SDS011;6832;51.186;3.236;2022-08-19T09:18:01;10.30;;;4.67;;
13520;SDS011;6832;51.186;3.236;2022-08-19T09:20:35;7.40;;;4.20;;
13520;SDS011;6832;51.186;3.236;2022-08-19T09:25:36;5.30;;;4.10;;
13520;SDS011;6832;51.186;3.236;2022-08-19T09:28:11;3.87;;;3.47;;
13520;SDS011;6832;51.186;3.236;2022-08-19T09:30:39;6.20;;;4.53;;
13520;SDS011;6832;51.186;3.236;2022-08-19T09:33:16;6.03;;;4.27;;
13520;SDS011;6832;51.186;3.236;2022-08-19T09:35:44;8.73;;;5.33;;
13520;SDS011;6832;51.186;3.236;2022-08-19T09:38:15;7.83;;;6.07;;
13520;SDS011;6832;51.186;3.236;2022-08-19T09:40:42;8.83;;;5.33;;
13520;SDS011;6832;51.186;3.236;2022-08-19T09:43:10;6.37;;;5.30;;
13520;SDS011;6832;51.186;3.236;2022-08-19T09:45:37;8.97;;;6.17;;
13520;SDS011;6832;51.186;3.236;2022-08-19T09:48:06;7.90;;;5.67;;
13520;SDS011;6832;51.186;3.236;2022-08-19T09:50:41;7.53;;;6.20;;
13520;SDS011;6832;51.186;3.236;2022-08-19T09:53:09;7.40;;;5.70;;
13520;SDS011;6832;51.186;3.236;2022-08-19T09:55:41;14.17;;;8.83;;
13520;SDS011;6832;51.186;3.236;2022-08-19T09:58:09;10.83;;;8.67;;
13520;SDS011;6832;51.186;3.236;2022-08-19T10:00:38;15.43;;;10.03;;
13520;SDS011;6832;51.186;3.236;2022-08-19T10:03:06;13.90;;;9.93;;
13520;SDS011;6832;51.186;3.236;2022-08-19T10:05:33;16.27;;;9.00;;
13520;SDS011;6832;51.186;3.236;2022-08-19T10:08:18;8.50;;;7.00;;
13520;SDS011;6832;51.186;3.236;2022-08-19T10:10:48;10.50;;;7.87;;
13520;SDS011;6832;51.186;3.236;2022-08-19T10:13:19;11.97;;;8.37;;
13520;SDS011;6832;51.186;3.236;2022-08-19T10:15:50;15.77;;;10.67;;
13520;SDS011;6832;51.186;3.236;2022-08-19T10:18:36;13.80;;;10.43;;
13520;SDS011;6832;51.186;3.236;2022-08-19T10:21:06;14.83;;;9.93;;
13520;SDS011;6832;51.186;3.236;2022-08-19T10:23:42;11.80;;;9.73;;
13520;SDS011;6832;51.186;3.236;2022-08-19T10:26:20;12.73;;;8.83;;
13520;SDS011;6832;51.186;3.236;2022-08-19T10:28:50;8.47;;;7.20;;
13520;SDS011;6832;51.186;3.236;2022-08-19T10:31:18;11.47;;;7.83;;
13520;SDS011;6832;51.186;3.236;2022-08-19T10:33:46;12.73;;;8.60;;
13520;SDS011;6832;51.186;3.236;2022-08-19T10:36:15;11.37;;;7.70;;
13520;SDS011;6832;51.186;3.236;2022-08-19T10:38:48;10.53;;;8.07;;
13520;SDS011;6832;51.186;3.236;2022-08-19T10:41:23;10.90;;;8.10;;
13520;SDS011;6832;51.186;3.236;2022-08-19T10:43:53;10.97;;;7.03;;
13520;SDS011;6832;51.186;3.236;2022-08-19T10:46:22;11.07;;;7.10;;
13520;SDS011;6832;51.186;3.236;2022-08-19T10:49:00;7.90;;;5.33;;
13520;SDS011;6832;51.186;3.236;2022-08-19T10:51:29;10.60;;;6.00;;
13520;SDS011;6832;51.186;3.236;2022-08-19T10:54:18;5.93;;;3.70;;
13520;SDS011;6832;51.186;3.236;2022-08-19T10:56:47;5.67;;;3.87;;
13520;SDS011;6832;51.186;3.236;2022-08-19T10:59:28;5.33;;;3.33;;
13520;SDS011;6832;51.186;3.236;2022-08-19T11:01:58;7.93;;;4.70;;
13520;SDS011;6832;51.186;3.236;2022-08-19T11:04:37;8.20;;;6.40;;
13520;SDS011;6832;51.186;3.236;2022-08-19T11:09:56;12.17;;;9.63;;
13520;SDS011;6832;51.186;3.236;2022-08-19T11:12:23;13.97;;;10.13;;
13520;SDS011;6832;51.186;3.236;2022-08-19T11:15:02;16.37;;;10.30;;
13520;SDS011;6832;51.186;3.236;2022-08-19T11:17:33;13.53;;;9.00;;
13520;SDS011;6832;51.186;3.236;2022-08-19T11:20:10;11.07;;;7.87;;
13520;SDS011;6832;51.186;3.236;2022-08-19T11:22:42;10.90;;;7.93;;
13520;SDS011;6832;51.186;3.236;2022-08-19T11:25:11;11.90;;;8.03;;
13520;SDS011;6832;51.186;3.236;2022-08-19T11:27:38;9.17;;;6.03;;
13520;SDS011;6832;51.186;3.236;2022-08-19T11:30:14;9.13;;;6.37;;
13520;SDS011;6832;51.186;3.236;2022-08-19T11:32:41;7.73;;;4.90;;
13520;SDS011;6832;51.186;3.236;2022-08-19T11:35:10;7.33;;;4.53;;
13520;SDS011;6832;51.186;3.236;2022-08-19T11:40:36;5.70;;;4.00;;
13520;SDS011;6832;51.186;3.236;2022-08-19T11:43:07;8.03;;;4.73;;
13520;SDS011;6832;51.186;3.236;2022-08-19T11:45:35;8.83;;;5.07;;
13520;SDS011;6832;51.186;3.236;2022-08-19T11:48:02;8.07;;;4.73;;
13520;SDS011;6832;51.186;3.236;2022-08-19T11:50:30;8.97;;;4.07;;
13520;SDS011;6832;51.186;3.236;2022-08-19T11:53:00;8.03;;;4.17;;
13520;SDS011;6832;51.186;3.236;2022-08-19T11:55:39;4.97;;;3.20;;
13520;SDS011;6832;51.186;3.236;2022-08-19T11:58:26;12.27;;;5.17;;
13520;SDS011;6832;51.186;3.236;2022-08-19T12:01:00;10.03;;;4.50;;
13520;SDS011;6832;51.186;3.236;2022-08-19T12:06:36;7.50;;;4.53;;
13520;SDS011;6832;51.186;3.236;2022-08-19T12:09:09;7.00;;;4.57;;
13520;SDS011;6832;51.186;3.236;2022-08-19T12:12:22;8.30;;;5.10;;
13520;SDS011;6832;51.186;3.236;2022-08-19T12:18:13;7.03;;;4.47;;
13520;SDS011;6832;51.186;3.236;2022-08-19T12:20:47;7.33;;;4.37;;
13520;SDS011;6832;51.186;3.236;2022-08-19T12:23:32;6.33;;;4.63;;
13520;SDS011;6832;51.186;3.236;2022-08-19T12:26:03;6.93;;;4.87;;
13520;SDS011;6832;51.186;3.236;2022-08-19T12:28:39;4.73;;;3.97;;
13520;SDS011;6832;51.186;3.236;2022-08-19T12:31:41;8.30;;;4.87;;
13520;SDS011;6832;51.186;3.236;2022-08-19T12:34:22;7.83;;;5.30;;
13520;SDS011;6832;51.186;3.236;2022-08-19T12:37:01;9.60;;;5.23;;
13520;SDS011;6832;51.186;3.236;2022-08-19T12:42:45;6.03;;;4.27;;
13520;SDS011;6832;51.186;3.236;2022-08-19T12:45:22;5.50;;;4.77;;
13520;SDS011;6832;51.186;3.236;2022-08-19T12:47:57;7.27;;;5.03;;
13520;SDS011;6832;51.186;3.236;2022-08-19T12:50:24;6.50;;;4.90;;
13520;SDS011;6832;51.186;3.236;2022-08-19T12:52:51;10.50;;;5.33;;
13520;SDS011;6832;51.186;3.236;2022-08-19T12:55:20;8.77;;;4.77;;
13520;SDS011;6832;51.186;3.236;2022-08-19T12:57:53;8.10;;;3.87;;
13520;SDS011;6832;51.186;3.236;2022-08-19T13:00:23;6.93;;;3.93;;
13520;SDS011;6832;51.186;3.236;2022-08-19T13:02:52;6.60;;;3.63;;
13520;SDS011;6832;51.186;3.236;2022-08-19T13:05:23;4.63;;;2.93;;
13520;SDS011;6832;51.186;3.236;2022-08-19T13:08:29;5.63;;;3.30;;
13520;SDS011;6832;51.186;3.236;2022-08-19T13:11:10;7.23;;;3.93;;
13520;SDS011;6832;51.186;3.236;2022-08-19T13:13:40;6.20;;;3.53;;
13520;SDS011;6832;51.186;3.236;2022-08-19T13:16:12;8.27;;;4.20;;
13520;SDS011;6832;51.186;3.236;2022-08-19T13:18:56;7.47;;;4.00;;
13520;SDS011;6832;51.186;3.236;2022-08-19T13:21:48;8.47;;;3.47;;
13520;SDS011;6832;51.186;3.236;2022-08-19T13:24:18;7.53;;;3.40;;
13520;SDS011;6832;51.186;3.236;2022-08-19T13:26:45;7.20;;;3.53;;
13520;SDS011;6832;51.186;3.236;2022-08-19T13:29:14;9.03;;;3.80;;
13520;SDS011;6832;51.186;3.236;2022-08-19T13:32:00;5.60;;;3.40;;
13520;SDS011;6832;51.186;3.236;2022-08-19T13:34:45;5.90;;;3.13;;
13520;SDS011;6832;51.186;3.236;2022-08-19T13:37:13;7.13;;;3.53;;
13520;SDS011;6832;51.186;3.236;2022-08-19T13:40:02;7.90;;;3.47;;
13520;SDS011;6832;51.186;3.236;2022-08-19T13:42:31;10.47;;;4.37;;
13520;SDS011;6832;51.186;3.236;2022-08-19T13:44:58;11.70;;;4.23;;
13520;SDS011;6832;51.186;3.236;2022-08-19T13:47:27;8.63;;;3.73;;
13520;SDS011;6832;51.186;3.236;2022-08-19T13:49:57;8.53;;;3.93;;
13520;SDS011;6832;51.186;3.236;2022-08-19T13:54:56;7.90;;;3.50;;
13520;SDS011;6832;51.186;3.236;2022-08-19T13:57:37;8.97;;;3.83;;
13520;SDS011;6832;51.186;3.236;2022-08-19T14:01:01;10.40;;;4.20;;
13520;SDS011;6832;51.186;3.236;2022-08-19T14:03:32;9.77;;;3.80;;
13520;SDS011;6832;51.186;3.236;2022-08-19T14:06:02;7.03;;;3.03;;
13520;SDS011;6832;51.186;3.236;2022-08-19T14:08:43;7.43;;;3.40;;
13520;SDS011;6832;51.186;3.236;2022-08-19T14:11:13;7.57;;;3.37;;
13520;SDS011;6832;51.186;3.236;2022-08-19T14:13:41;9.97;;;4.30;;
13520;SDS011;6832;51.186;3.236;2022-08-19T14:16:10;9.57;;;3.97;;
13520;SDS011;6832;51.186;3.236;2022-08-19T14:18:43;5.70;;;3.50;;
13520;SDS011;6832;51.186;3.236;2022-08-19T14:21:17;7.37;;;3.97;;
13520;SDS011;6832;51.186;3.236;2022-08-19T14:23:48;5.60;;;3.13;;
13520;SDS011;6832;51.186;3.236;2022-08-19T14:26:22;6.60;;;3.00;;
13520;SDS011;6832;51.186;3.236;2022-08-19T14:28:51;8.70;;;4.73;;
13520;SDS011;6832;51.186;3.236;2022-08-19T14:31:22;8.53;;;3.47;;
13520;SDS011;6832;51.186;3.236;2022-08-19T14:36:52;5.67;;;2.67;;
13520;SDS011;6832;51.186;3.236;2022-08-19T14:39:26;4.23;;;2.03;;
13520;SDS011;6832;51.186;3.236;2022-08-19T14:41:54;4.90;;;2.47;;
13520;SDS011;6832;51.186;3.236;2022-08-19T14:44:26;4.97;;;2.13;;
13520;SDS011;6832;51.186;3.236;2022-08-19T14:46:55;5.60;;;2.60;;
13520;SDS011;6832;51.186;3.236;2022-08-19T14:49:28;5.40;;;2.53;;
13520;SDS011;6832;51.186;3.236;2022-08-19T14:51:57;8.53;;;4.03;;
13520;SDS011;6832;51.186;3.236;2022-08-19T14:54:24;4.93;;;2.40;;
13520;SDS011;6832;51.186;3.236;2022-08-19T14:56:53;5.17;;;2.57;;
13520;SDS011;6832;51.186;3.236;2022-08-19T14:59:22;8.93;;;3.23;;
13520;SDS011;6832;51.186;3.236;2022-08-19T15:01:49;9.03;;;3.17;;
13520;SDS011;6832;51.186;3.236;2022-08-19T15:04:17;7.13;;;3.33;;
13520;SDS011;6832;51.186;3.236;2022-08-19T15:06:46;7.57;;;3.07;;
13520;SDS011;6832;51.186;3.236;2022-08-19T15:09:17;9.73;;;3.83;;
13520;SDS011;6832;51.186;3.236;2022-08-19T15:11:44;8.17;;;3.10;;
13520;SDS011;6832;51.186;3.236;2022-08-19T15:14:13;5.57;;;2.30;;
13520;SDS011;6832;51.186;3.236;2022-08-19T15:19:34;6.60;;;2.83;;
13520;SDS011;6832;51.186;3.236;2022-08-19T15:22:03;6.63;;;2.47;;
13520;SDS011;6832;51.186;3.236;2022-08-19T15:24:31;9.33;;;3.77;;
13520;SDS011;6832;51.186;3.236;2022-08-19T15:27:15;2.87;;;1.40;;
13520;SDS011;6832;51.186;3.236;2022-08-19T15:29:48;8.20;;;3.37;;
13520;SDS011;6832;51.186;3.236;2022-08-19T15:32:35;9.47;;;2.57;;
13520;SDS011;6832;51.186;3.236;2022-08-19T15:35:05;7.67;;;2.80;;
13520;SDS011;6832;51.186;3.236;2022-08-19T15:37:36;6.27;;;2.57;;
13520;SDS011;6832;51.186;3.236;2022-08-19T15:40:04;7.47;;;3.20;;
13520;SDS011;6832;51.186;3.236;2022-08-19T15:42:33;4.83;;;2.27;;
13520;SDS011;6832;51.186;3.236;2022-08-19T15:45:01;8.27;;;3.00;;
13520;SDS011;6832;51.186;3.236;2022-08-19T15:47:29;4.60;;;1.97;;
13520;SDS011;6832;51.186;3.236;2022-08-19T15:49:59;5.60;;;2.70;;
13520;SDS011;6832;51.186;3.236;2022-08-19T15:52:27;5.60;;;2.43;;
13520;SDS011;6832;51.186;3.236;2022-08-19T15:54:59;7.30;;;3.27;;
13520;SDS011;6832;51.186;3.236;2022-08-19T15:57:28;8.93;;;3.60;;
13520;SDS011;6832;51.186;3.236;2022-08-19T16:00:19;3.73;;;1.90;;
13520;SDS011;6832;51.186;3.236;2022-08-19T16:03:04;7.23;;;3.33;;
13520;SDS011;6832;51.186;3.236;2022-08-19T16:05:50;9.23;;;3.20;;
13520;SDS011;6832;51.186;3.236;2022-08-19T16:08:46;9.73;;;3.43;;
13520;SDS011;6832;51.186;3.236;2022-08-19T16:11:22;8.03;;;3.43;;
13520;SDS011;6832;51.186;3.236;2022-08-19T16:13:51;9.13;;;3.47;;
13520;SDS011;6832;51.186;3.236;2022-08-19T16:16:23;7.30;;;2.70;;
13520;SDS011;6832;51.186;3.236;2022-08-19T16:18:55;14.63;;;5.33;;
13520;SDS011;6832;51.186;3.236;2022-08-19T16:21:24;8.23;;;3.30;;
13520;SDS011;6832;51.186;3.236;2022-08-19T16:23:58;8.50;;;3.80;;
13520;SDS011;6832;51.186;3.236;2022-08-19T16:26:28;6.50;;;3.13;;
13520;SDS011;6832;51.186;3.236;2022-08-19T16:28:56;5.63;;;2.73;;
13520;SDS011;6832;51.186;3.236;2022-08-19T16:31:23;8.07;;;2.63;;
13520;SDS011;6832;51.186;3.236;2022-08-19T16:33:53;5.93;;;2.53;;
13520;SDS011;6832;51.186;3.236;2022-08-19T16:36:22;7.60;;;3.57;;
13520;SDS011;6832;51.186;3.236;2022-08-19T16:38:50;5.83;;;2.90;;
13520;SDS011;6832;51.186;3.236;2022-08-19T16:44:15;7.43;;;2.90;;
13520;SDS011;6832;51.186;3.236;2022-08-19T16:46:46;8.60;;;3.50;;
13520;SDS011;6832;51.186;3.236;2022-08-19T16:49:15;11.90;;;4.23;;
13520;SDS011;6832;51.186;3.236;2022-08-19T16:51:44;10.57;;;3.97;;
13520;SDS011;6832;51.186;3.236;2022-08-19T16:54:13;9.93;;;3.57;;
13520;SDS011;6832;51.186;3.236;2022-08-19T16:56:40;9.60;;;3.87;;
13520;SDS011;6832;51.186;3.236;2022-08-19T16:59:12;6.27;;;3.03;;
13520;SDS011;6832;51.186;3.236;2022-08-19T17:01:42;8.23;;;3.43;;
13520;SDS011;6832;51.186;3.236;2022-08-19T17:04:10;10.43;;;3.97;;
13520;SDS011;6832;51.186;3.236;2022-08-19T17:06:38;5.83;;;2.87;;
13520;SDS011;6832;51.186;3.236;2022-08-19T17:09:06;10.80;;;4.10;;
13520;SDS011;6832;51.186;3.236;2022-08-19T17:11:33;7.20;;;3.00;;
13520;SDS011;6832;51.186;3.236;2022-08-19T17:14:01;11.87;;;4.87;;
13520;SDS011;6832;51.186;3.236;2022-08-19T17:16:33;6.77;;;3.27;;
13520;SDS011;6832;51.186;3.236;2022-08-19T17:19:05;10.67;;;3.60;;
13520;SDS011;6832;51.186;3.236;2022-08-19T17:21:39;9.13;;;3.23;;
13520;SDS011;6832;51.186;3.236;2022-08-19T17:24:06;7.20;;;2.63;;
13520;SDS011;6832;51.186;3.236;2022-08-19T17:26:34;6.63;;;2.70;;
13520;SDS011;6832;51.186;3.236;2022-08-19T17:29:03;9.50;;;3.67;;
13520;SDS011;6832;51.186;3.236;2022-08-19T17:31:31;7.03;;;3.30;;
13520;SDS011;6832;51.186;3.236;2022-08-19T17:34:01;7.73;;;3.57;;
13520;SDS011;6832;51.186;3.236;2022-08-19T17:36:29;15.03;;;4.77;;
13520;SDS011;6832;51.186;3.236;2022-08-19T17:38:58;10.60;;;3.50;;
13520;SDS011;6832;51.186;3.236;2022-08-19T17:41:29;11.27;;;3.23;;